Time;durP1;ratioP1;P1;durP2;ratioP2;P2;SDS_P1;SDS_P2;PMS_P1;PMS_P2;Temp;Humidity;BMP_temperature;BMP_pressure;BME280_temperature;BME280_humidity;BME280_pressure;Samples;Min_cycle;Max_cycle;Signal;HPM_P1;HPM_P2
2023/05/14 00:02:32;;;;;;;16.10;11.00;;;;;;;8.15;69.09;99203.20;225447;1283;22631;-71
2023/05/14 00:07:35;;;;;;;14.50;10.60;;;;;;;8.09;69.47;99200.46;225412;1281;22524;-72
2023/05/14 00:12:52;;;;;;;16.10;11.80;;;;;;;8.04;69.84;99195.21;225488;1281;22543;-72
2023/05/14 00:18:20;;;;;;;13.20;10.20;;;;;;;7.98;70.07;99192.68;225462;1283;22538;-71
2023/05/14 00:24:09;;;;;;;16.10;11.10;;;;;;;7.92;70.05;99189.33;225482;1283;22551;-71
2023/05/14 00:29:31;;;;;;;16.20;11.20;;;;;;;7.86;70.30;99186.20;225500;1283;22558;-71
2023/05/14 00:34:47;;;;;;;14.30;11.60;;;;;;;7.82;70.49;99175.11;225481;1281;25265;-72
2023/05/14 00:39:54;;;;;;;17.80;11.00;;;;;;;7.77;70.68;99173.79;225421;1281;22558;-72
2023/05/14 00:45:02;;;;;;;15.10;11.60;;;;;;;7.74;70.80;99177.30;225482;1283;22551;-72
2023/05/14 00:50:20;;;;;;;15.90;12.30;;;;;;;7.70;70.78;99187.38;225364;1283;25351;-72
2023/05/14 00:55:31;;;;;;;14.40;12.00;;;;;;;7.63;71.05;99188.33;225399;1283;22564;-72
2023/05/14 01:00:35;;;;;;;15.20;10.80;;;;;;;7.55;70.98;99188.11;225465;1283;22536;-71
2023/05/14 01:05:59;;;;;;;15.70;10.80;;;;;;;7.48;71.56;99190.73;225448;1283;22536;-71
2023/05/14 01:11:51;;;;;;;15.20;11.90;;;;;;;7.42;71.58;99190.09;225429;1283;23438;-72
2023/05/14 01:17:10;;;;;;;14.70;11.60;;;;;;;7.33;71.46;99191.70;225417;1283;22543;-71
2023/05/14 01:22:18;;;;;;;16.00;12.10;;;;;;;7.25;71.84;99188.02;225459;1281;24197;-71
2023/05/14 01:27:22;;;;;;;14.70;11.40;;;;;;;7.17;72.04;99186.08;225444;1283;22490;-71
2023/05/14 01:32:34;;;;;;;13.60;10.80;;;;;;;7.10;72.29;99189.61;225511;1283;22546;-72
2023/05/14 01:37:47;;;;;;;15.00;11.30;;;;;;;7.03;72.65;99188.34;225431;1283;24204;-71
2023/05/14 01:43:11;;;;;;;15.50;12.10;;;;;;;6.98;72.89;99190.84;225410;1282;22550;-71
2023/05/14 01:48:21;;;;;;;17.20;11.60;;;;;;;6.93;72.97;99185.17;225443;1270;22552;-72
2023/05/14 01:53:24;;;;;;;16.50;10.20;;;;;;;6.91;73.14;99183.15;225471;1281;22574;-71
2023/05/14 01:58:36;;;;;;;15.20;11.00;;;;;;;6.88;73.35;99176.82;225324;1283;22570;-71
2023/05/14 02:03:39;;;;;;;17.30;11.20;;;;;;;6.84;73.28;99176.30;225307;1283;22544;-71
2023/05/14 02:08:50;;;;;;;14.10;10.40;;;;;;;6.81;73.54;99173.27;225342;1280;22544;-71
2023/05/14 02:13:53;;;;;;;14.50;11.30;;;;;;;6.78;73.79;99167.14;225357;1283;22554;-71
2023/05/14 02:18:58;;;;;;;17.40;12.30;;;;;;;6.73;73.84;99168.79;225338;1283;22527;-72
2023/05/14 02:24:01;;;;;;;16.20;11.60;;;;;;;6.69;73.98;99168.16;225347;1283;24882;-71
2023/05/14 02:29:07;;;;;;;16.90;12.00;;;;;;;6.65;73.87;99161.61;225458;1281;22563;-71
2023/05/14 02:34:41;;;;;;;;;;;;;;;;;;;;;
2023/05/14 02:40:36;;;;;;;16.20;11.70;;;;;;;6.53;74.23;99151.74;225451;1283;22644;-72
2023/05/14 02:45:59;;;;;;;19.20;12.20;;;;;;;6.46;74.35;99148.14;225474;1283;22556;-71
2023/05/14 02:51:25;;;;;;;;;;;;;;;;;;;;;
2023/05/14 02:56:43;;;;;;;15.40;11.90;;;;;;;6.36;74.91;99135.75;225366;1283;22529;-72
2023/05/14 03:02:18;;;;;;;17.20;11.80;;;;;;;6.38;75.36;99135.26;225462;1279;24283;-72
2023/05/14 03:07:38;;;;;;;15.70;11.50;;;;;;;6.39;75.36;99132.34;225470;1276;22541;-71
2023/05/14 03:13:19;;;;;;;;;;;;;;;;;;;;;
2023/05/14 03:18:40;;;;;;;;;;;;;;;;;;;;;
2023/05/14 03:23:52;;;;;;;12.90;11.00;;;;;;;6.24;75.70;99122.28;225464;1283;22551;-71
2023/05/14 03:28:57;;;;;;;16.20;12.00;;;;;;;6.26;76.09;99116.48;225434;1283;22534;-71
2023/05/14 03:34:00;;;;;;;17.20;11.90;;;;;;;6.38;76.14;99118.64;225462;1283;22567;-71
2023/05/14 03:39:22;;;;;;;16.60;12.40;;;;;;;6.53;76.17;99117.84;225340;1283;27070;-70
2023/05/14 03:44:52;;;;;;;16.50;12.70;;;;;;;6.65;75.97;99115.66;225337;1283;22543;-70
2023/05/14 03:50:10;;;;;;;14.30;11.80;;;;;;;6.79;76.08;99115.95;225445;1283;22567;-71
2023/05/14 03:55:25;;;;;;;16.10;12.70;;;;;;;6.83;75.81;99116.90;225316;1283;22490;-72
2023/05/14 04:00:56;;;;;;;16.00;11.50;;;;;;;6.87;75.99;99116.14;225447;1280;22543;-71
2023/05/14 04:06:04;;;;;;;15.70;12.60;;;;;;;6.93;76.09;99114.84;225418;1283;22563;-71
2023/05/14 04:11:37;;;;;;;14.10;11.70;;;;;;;6.94;75.96;99120.96;225447;1283;23061;-71
2023/05/14 04:17:19;;;;;;;16.40;12.20;;;;;;;6.99;76.20;99122.55;225392;1283;22540;-70
2023/05/14 04:23:06;;;;;;;;;;;;;;;;;;;;;
2023/05/14 04:28:54;;;;;;;14.00;12.10;;;;;;;7.17;76.08;99115.64;225419;1283;24261;-70
2023/05/14 04:34:30;;;;;;;15.00;12.00;;;;;;;7.32;76.29;99112.67;225323;1283;22549;-71
2023/05/14 04:39:46;;;;;;;13.80;11.80;;;;;;;7.50;76.46;99104.67;225353;1283;22552;-71
2023/05/14 04:45:07;;;;;;;16.10;12.40;;;;;;;7.69;76.26;99105.77;225299;1283;22551;-72
2023/05/14 04:50:46;;;;;;;12.50;11.20;;;;;;;7.87;76.34;99104.92;225390;1283;22546;-71
2023/05/14 04:55:47;;;;;;;15.50;12.30;;;;;;;8.05;76.51;99106.45;225398;1279;22543;-71
2023/05/14 05:01:02;;;;;;;16.30;12.90;;;;;;;8.31;76.82;99108.83;225421;1280;23458;-72
2023/05/14 05:06:06;;;;;;;17.80;13.80;;;;;;;8.57;76.71;99106.80;225331;1277;22675;-72
2023/05/14 05:11:11;;;;;;;16.00;13.60;;;;;;;8.79;76.76;99105.69;225402;1279;22556;-72
2023/05/14 05:16:14;;;;;;;16.00;13.50;;;;;;;9.01;76.65;99099.55;225426;1283;23435;-71
2023/05/14 05:21:17;;;;;;;15.70;12.90;;;;;;;9.25;76.51;99105.95;225381;1283;22544;-71
2023/05/14 05:26:25;;;;;;;15.30;13.90;;;;;;;9.53;76.39;99101.23;225363;1280;24875;-72
2023/05/14 05:31:38;;;;;;;14.80;13.20;;;;;;;9.83;76.36;99099.94;225379;1279;22536;-72
2023/05/14 05:36:40;;;;;;;14.30;12.40;;;;;;;10.13;76.43;99101.73;225355;1281;22677;-72
2023/05/14 05:41:47;;;;;;;12.60;10.80;;;;;;;10.43;76.38;99093.65;225356;1280;25525;-72
2023/05/14 05:46:56;;;;;;;14.20;11.90;;;;;;;10.77;75.95;99095.95;225408;1283;22548;-71
2023/05/14 05:52:05;;;;;;;16.60;13.40;;;;;;;11.09;75.16;99101.11;225378;1280;22547;-72
2023/05/14 05:57:17;;;;;;;21.10;16.20;;;;;;;11.41;74.70;99104.17;225359;1283;22567;-72
2023/05/14 06:02:19;;;;;;;18.40;16.40;;;;;;;11.70;74.08;99106.58;225351;1283;22539;-72
2023/05/14 06:07:24;;;;;;;20.90;17.80;;;;;;;11.98;73.83;99097.15;225318;1283;22700;-72
2023/05/14 06:12:39;;;;;;;20.60;15.10;;;;;;;12.28;73.41;99089.16;225321;1283;23219;-71
2023/05/14 06:17:41;;;;;;;19.90;15.10;;;;;;;12.60;73.01;99091.16;225364;1276;23051;-72
2023/05/14 06:22:47;;;;;;;16.60;13.60;;;;;;;12.89;72.39;99081.64;225364;1279;24203;-72
2023/05/14 06:27:49;;;;;;;14.60;12.50;;;;;;;13.16;71.98;99085.64;225378;1283;22619;-72
2023/05/14 06:32:51;;;;;;;15.50;13.20;;;;;;;13.40;71.29;99081.63;225308;1282;24293;-72
2023/05/14 06:37:54;;;;;;;14.70;11.80;;;;;;;13.62;70.82;99078.72;225287;1283;22563;-72
2023/05/14 06:42:56;;;;;;;13.10;11.80;;;;;;;13.77;70.02;99083.27;225323;1283;22596;-72
2023/05/14 06:48:08;;;;;;;14.70;11.90;;;;;;;13.89;69.64;99081.56;225344;1283;22556;-73
2023/05/14 06:53:15;;;;;;;11.50;10.40;;;;;;;14.10;69.46;99088.45;225412;1277;22564;-71
2023/05/14 06:58:33;;;;;;;15.10;11.90;;;;;;;14.33;68.79;99080.09;225390;1283;22576;-72
2023/05/14 07:03:35;;;;;;;13.70;11.70;;;;;;;14.49;68.34;99071.73;225396;1280;22575;-72
2023/05/14 07:08:37;;;;;;;13.70;9.70;;;;;;;14.64;68.12;99075.77;225404;1283;22544;-72
2023/05/14 07:13:40;;;;;;;12.70;9.60;;;;;;;14.81;67.54;99072.13;225382;1275;22543;-72
2023/05/14 07:18:44;;;;;;;12.80;9.70;;;;;;;14.97;67.08;99076.96;225400;1281;22552;-72
2023/05/14 07:23:46;;;;;;;11.80;9.00;;;;;;;15.15;66.71;99077.45;225359;1281;22530;-72
2023/05/14 07:28:49;;;;;;;11.50;10.30;;;;;;;15.35;66.45;99076.67;225343;1280;22547;-73
2023/05/14 07:34:10;;;;;;;12.90;9.80;;;;;;;15.55;66.10;99083.31;225391;1280;22555;-72
2023/05/14 07:39:12;;;;;;;8.10;7.20;;;;;;;15.69;65.48;99081.09;225428;1280;22550;-72
2023/05/14 07:44:15;;;;;;;7.90;7.10;;;;;;;15.81;65.17;99077.86;225374;1279;22550;-73
2023/05/14 07:49:17;;;;;;;7.70;6.90;;;;;;;15.94;64.82;99073.52;225425;1276;22567;-71
2023/05/14 07:54:25;;;;;;;5.70;5.20;;;;;;;16.11;64.41;99066.27;225413;1280;22554;-71
2023/05/14 07:59:27;;;;;;;5.70;5.10;;;;;;;16.24;63.26;99061.65;225414;1276;22652;-72
2023/05/14 08:04:50;;;;;;;5.40;4.80;;;;;;;16.47;63.45;99049.06;225089;1283;24226;-71
2023/05/14 08:09:53;;;;;;;5.00;4.50;;;;;;;16.74;62.83;99040.98;225060;1286;23225;-72
2023/05/14 08:14:55;;;;;;;4.80;4.30;;;;;;;16.96;62.11;99032.38;225087;1286;24265;-72
2023/05/14 08:19:57;;;;;;;4.90;4.50;;;;;;;17.21;61.79;99028.01;225075;1280;22686;-72
2023/05/14 08:25:02;;;;;;;5.50;4.40;;;;;;;17.44;61.46;99021.55;225095;1281;22569;-72
2023/05/14 08:30:06;;;;;;;6.30;4.90;;;;;;;17.48;59.97;99013.37;225063;1286;22543;-72
2023/05/14 08:35:18;;;;;;;6.20;4.90;;;;;;;17.67;60.45;99010.06;225182;1283;22612;-71
2023/05/14 08:40:20;;;;;;;6.00;5.30;;;;;;;17.97;59.69;99006.25;225409;1283;22571;-72
2023/05/14 08:45:33;;;;;;;5.80;5.20;;;;;;;18.11;59.28;99003.18;225295;1283;22583;-73
2023/05/14 08:50:47;;;;;;;5.80;5.30;;;;;;;18.28;59.43;98999.61;225340;1280;22558;-73
2023/05/14 08:55:53;;;;;;;6.50;5.80;;;;;;;18.56;59.45;98991.98;225399;1283;22559;-72
2023/05/14 09:00:56;;;;;;;6.50;5.80;;;;;;;18.70;58.58;98985.45;225432;1283;22564;-72
2023/05/14 09:06:03;;;;;;;6.30;5.70;;;;;;;18.79;58.57;98977.77;225364;1280;22548;-72
2023/05/14 09:11:05;;;;;;;6.60;5.60;;;;;;;18.92;58.06;98981.39;225382;1280;24258;-71
2023/05/14 09:16:08;;;;;;;6.20;5.30;;;;;;;19.03;57.76;98979.75;225340;1283;22656;-72
2023/05/14 09:21:14;;;;;;;6.40;5.80;;;;;;;19.09;57.04;98977.45;225444;1279;24498;-72
2023/05/14 09:26:25;;;;;;;13.60;11.00;;;;;;;19.13;56.85;98980.33;225335;1283;22546;-72
2023/05/14 09:31:32;;;;;;;6.90;6.10;;;;;;;19.24;56.75;98983.06;225422;1275;22569;-73
2023/05/14 09:36:34;;;;;;;6.20;5.60;;;;;;;19.37;56.43;98979.70;225430;1280;22647;-72
2023/05/14 09:41:41;;;;;;;6.30;5.70;;;;;;;19.46;56.02;98976.44;225362;1283;22596;-73
2023/05/14 09:46:48;;;;;;;7.70;6.30;;;;;;;19.54;55.70;98970.36;225426;1280;22586;-72
2023/05/14 09:51:56;;;;;;;6.50;5.70;;;;;;;19.56;55.24;98964.80;225470;1282;24344;-71
2023/05/14 09:56:59;;;;;;;6.20;5.60;;;;;;;19.62;55.55;98956.55;225409;1283;22551;-71
2023/05/14 10:02:20;;;;;;;7.80;6.80;;;;;;;19.81;55.08;98950.63;225453;1279;23363;-71
2023/05/14 10:07:57;;;;;;;8.00;5.10;;;;;;;19.94;54.33;98941.73;225452;1283;23767;-72
2023/05/14 10:13:04;;;;;;;5.10;4.60;;;;;;;20.17;54.15;98930.77;225468;1283;22533;-73
2023/05/14 10:18:11;;;;;;;4.30;3.90;;;;;;;20.54;53.36;98923.14;225420;1283;22572;-71
2023/05/14 10:23:16;;;;;;;4.40;3.90;;;;;;;20.79;52.30;98918.28;225405;1281;22539;-73
2023/05/14 10:28:28;;;;;;;4.40;3.70;;;;;;;20.99;51.72;98908.31;225393;1277;22543;-71
2023/05/14 10:33:45;;;;;;;3.20;2.90;;;;;;;21.10;51.18;98900.42;225366;1277;22553;-70
2023/05/14 10:38:56;;;;;;;3.00;2.80;;;;;;;21.28;50.85;98890.48;224834;1283;754586;-73
2023/05/14 10:43:58;;;;;;;4.00;3.30;;;;;;;21.44;50.26;98895.04;225397;1283;22575;-72
2023/05/14 10:49:01;;;;;;;2.80;2.60;;;;;;;21.54;49.30;98892.96;225420;1275;25980;-73
2023/05/14 10:54:07;;;;;;;3.20;2.90;;;;;;;21.61;49.03;98888.19;225291;1277;26054;-72
2023/05/14 10:59:11;;;;;;;5.80;3.10;;;;;;;21.66;48.51;98883.98;225406;1274;22543;-72
2023/05/14 11:04:22;;;;;;;3.80;2.80;;;;;;;21.75;48.54;98884.64;225373;1283;22547;-72
2023/05/14 11:09:28;;;;;;;3.50;3.00;;;;;;;22.00;48.84;98879.60;225363;1280;25258;-72
2023/05/14 11:14:30;;;;;;;3.80;3.40;;;;;;;22.17;48.13;98878.53;225368;1283;22561;-72
2023/05/14 11:19:33;;;;;;;3.20;3.00;;;;;;;22.36;47.95;98872.27;225404;1280;22573;-71
2023/05/14 11:24:35;;;;;;;10.40;9.40;;;;;;;22.60;47.46;98866.62;225296;1278;22590;-72
2023/05/14 11:29:47;;;;;;;3.90;3.50;;;;;;;22.74;47.00;98867.11;225406;1281;23001;-73
2023/05/14 11:34:52;;;;;;;3.50;3.20;;;;;;;22.69;45.67;98862.45;225417;1278;22550;-74
2023/05/14 11:39:58;;;;;;;3.60;3.30;;;;;;;22.70;46.05;98868.28;225375;1281;22543;-71
2023/05/14 11:45:01;;;;;;;3.80;3.50;;;;;;;22.80;46.10;98858.31;225372;1283;22595;-71
2023/05/14 11:50:08;;;;;;;4.90;3.50;;;;;;;22.83;45.88;98854.88;225437;1275;24235;-72
2023/05/14 11:55:16;;;;;;;4.80;3.30;;;;;;;22.70;45.34;98847.85;225413;1277;22550;-73
2023/05/14 12:00:23;;;;;;;8.10;7.40;;;;;;;22.72;45.27;98828.56;225423;1279;22543;-72
2023/05/14 12:05:28;;;;;;;4.10;2.70;;;;;;;22.70;44.59;98824.52;225397;1281;23087;-73
2023/05/14 12:10:41;;;;;;;3.40;2.60;;;;;;;22.70;44.57;98821.88;225374;1278;23067;-73
2023/05/14 12:15:45;;;;;;;3.90;3.00;;;;;;;22.74;44.57;98817.64;225467;1275;24218;-74
2023/05/14 12:20:50;;;;;;;3.30;3.00;;;;;;;22.67;44.67;98811.27;225401;1278;22543;-71
2023/05/14 12:25:51;;;;;;;9.00;8.10;;;;;;;22.48;44.54;98807.55;225417;1281;22604;-71
2023/05/14 12:30:56;;;;;;;3.70;3.30;;;;;;;22.44;45.13;98799.39;225403;1280;22538;-72
2023/05/14 12:36:02;;;;;;;4.10;2.70;;;;;;;22.47;45.11;98793.91;225400;1277;22564;-70
2023/05/14 12:41:07;;;;;;;3.30;3.00;;;;;;;22.46;44.56;98788.10;225364;1281;22550;-72
2023/05/14 12:46:09;;;;;;;2.60;2.40;;;;;;;22.35;44.58;98784.94;225356;1278;22566;-72
2023/05/14 12:51:12;;;;;;;3.00;2.70;;;;;;;22.34;44.51;98783.37;225400;1275;25292;-72
2023/05/14 12:56:14;;;;;;;2.70;2.50;;;;;;;22.32;44.67;98771.20;225458;1278;22559;-72
2023/05/14 13:01:39;;;;;;;2.90;2.70;;;;;;;22.37;45.06;98760.98;225333;1281;22543;-72
2023/05/14 13:06:52;;;;;;;4.00;3.50;;;;;;;22.44;44.91;98754.27;225386;1283;22571;-72
2023/05/14 13:12:02;;;;;;;3.30;3.00;;;;;;;22.52;44.97;98750.56;225389;1283;22543;-72
2023/05/14 13:17:07;;;;;;;3.20;2.90;;;;;;;22.75;45.05;98752.58;225400;1280;22587;-73
2023/05/14 13:22:13;;;;;;;3.40;3.00;;;;;;;22.84;45.12;98747.15;225383;1281;22543;-73
2023/05/14 13:27:15;;;;;;;3.50;3.20;;;;;;;22.83;44.69;98737.72;225423;1280;22760;-73
2023/05/14 13:32:17;;;;;;;3.50;3.20;;;;;;;22.70;44.61;98733.85;225465;1280;22615;-72
2023/05/14 13:37:20;;;;;;;2.80;2.50;;;;;;;22.59;44.92;98724.99;225456;1281;22581;-72
2023/05/14 13:42:22;;;;;;;3.10;2.80;;;;;;;22.53;45.58;98721.39;225412;1281;22543;-72
2023/05/14 13:47:27;;;;;;;3.70;2.60;;;;;;;22.42;45.13;98714.67;225424;1279;24337;-71
2023/05/14 13:52:33;;;;;;;2.80;2.60;;;;;;;22.34;45.34;98700.08;225325;1277;22544;-71
2023/05/14 13:57:35;;;;;;;2.80;2.40;;;;;;;22.32;45.39;98681.82;225420;1279;22544;-73
2023/05/14 14:02:41;;;;;;;3.90;2.50;;;;;;;22.26;45.23;98678.52;225439;1280;22565;-73
2023/05/14 14:07:47;;;;;;;3.50;3.20;;;;;;;22.19;45.24;98685.34;225418;1280;22547;-72
2023/05/14 14:12:54;;;;;;;2.70;2.50;;;;;;;22.10;45.39;98679.45;225314;1283;22540;-72
2023/05/14 14:17:56;;;;;;;2.20;2.00;;;;;;;22.02;45.73;98670.66;225456;1278;22576;-73
2023/05/14 14:22:59;;;;;;;2.20;2.00;;;;;;;21.94;46.22;98654.24;225378;1283;22493;-72
2023/05/14 14:28:04;;;;;;;2.10;1.80;;;;;;;21.85;46.23;98648.29;225464;1281;24279;-71
2023/05/14 14:33:06;;;;;;;2.50;2.10;;;;;;;21.73;46.45;98650.73;225473;1275;22577;-72
2023/05/14 14:38:09;;;;;;;2.30;1.70;;;;;;;21.60;46.25;98644.70;225486;1280;22577;-72
2023/05/14 14:43:20;;;;;;;1.70;1.60;;;;;;;21.45;46.25;98635.02;225456;1283;22530;-72
2023/05/14 14:48:36;;;;;;;2.60;1.60;;;;;;;21.32;45.76;98623.24;225472;1280;22564;-74
2023/05/14 14:53:39;;;;;;;1.60;1.40;;;;;;;21.19;45.75;98615.09;225494;1283;22651;-72
2023/05/14 14:58:41;;;;;;;1.60;1.40;;;;;;;21.06;45.53;98599.48;225435;1280;22546;-72
2023/05/14 15:03:44;;;;;;;1.90;1.60;;;;;;;20.98;45.55;98585.34;225442;1281;22546;-72
2023/05/14 15:08:46;;;;;;;3.30;2.40;;;;;;;20.86;45.87;98574.42;225500;1278;22548;-73
2023/05/14 15:13:49;;;;;;;1.80;1.70;;;;;;;20.75;46.35;98578.66;225492;1280;24803;-73
2023/05/14 15:18:57;;;;;;;2.20;1.90;;;;;;;20.72;46.30;98577.34;225387;1277;22578;-73
2023/05/14 15:24:03;;;;;;;2.40;1.80;;;;;;;20.64;46.21;98571.27;225409;1283;22542;-72
2023/05/14 15:29:05;;;;;;;2.20;2.00;;;;;;;20.55;46.35;98571.11;225435;1281;22865;-72
2023/05/14 15:34:10;;;;;;;2.50;1.90;;;;;;;20.46;46.60;98561.15;225451;1283;22547;-72
2023/05/14 15:39:12;;;;;;;3.20;2.10;;;;;;;20.32;46.85;98552.08;225474;1280;22563;-74
2023/05/14 15:44:18;;;;;;;4.30;2.20;;;;;;;20.20;47.21;98548.89;225358;1281;22583;-72
2023/05/14 15:49:22;;;;;;;3.30;2.30;;;;;;;20.02;47.44;98543.38;225470;1279;22543;-72
2023/05/14 15:54:26;;;;;;;3.20;2.50;;;;;;;19.84;47.90;98541.06;225456;1275;22544;-73
2023/05/14 15:59:29;;;;;;;3.70;2.60;;;;;;;19.70;48.20;98530.48;225516;1283;22566;-72
2023/05/14 16:04:31;;;;;;;5.40;2.70;;;;;;;19.59;48.62;98522.48;225410;1283;22548;-72
2023/05/14 16:09:33;;;;;;;3.20;2.60;;;;;;;19.52;49.07;98519.08;225394;1283;22543;-72
2023/05/14 16:14:36;;;;;;;3.00;2.10;;;;;;;19.43;49.85;98512.46;225479;1281;22535;-75
2023/05/14 16:19:40;;;;;;;4.40;2.20;;;;;;;19.31;50.34;98514.10;225489;1279;22543;-72
2023/05/14 16:24:43;;;;;;;6.90;1.90;;;;;;;19.17;51.00;98508.73;225380;1283;22546;-73
2023/05/14 16:29:51;;;;;;;1.90;1.70;;;;;;;19.03;51.47;98509.21;225462;1283;22544;-74
2023/05/14 16:34:57;;;;;;;2.40;1.70;;;;;;;18.88;51.58;98502.66;225474;1280;22562;-73
2023/05/14 16:39:59;;;;;;;5.30;2.20;;;;;;;18.73;51.92;98503.36;225477;1270;22536;-72
2023/05/14 16:45:01;;;;;;;4.80;2.10;;;;;;;18.59;52.37;98505.79;225463;1283;23065;-73
2023/05/14 16:50:05;;;;;;;3.40;2.10;;;;;;;18.46;53.39;98520.08;225491;1279;22550;-72
2023/05/14 16:55:07;;;;;;;4.60;2.30;;;;;;;18.29;54.36;98523.45;225508;1283;22543;-70
2023/05/14 17:00:11;;;;;;;2.20;1.90;;;;;;;18.07;55.22;98512.20;225501;1281;25932;-75
2023/05/14 17:05:13;;;;;;;2.50;2.30;;;;;;;17.83;55.71;98491.42;225421;1278;22563;-71
2023/05/14 17:10:25;;;;;;;8.40;2.50;;;;;;;17.62;56.40;98486.67;225509;1281;22547;-72
2023/05/14 17:15:28;;;;;;;4.60;3.70;;;;;;;17.43;57.25;98480.88;225598;1283;22667;-72
2023/05/14 17:20:30;;;;;;;8.00;7.10;;;;;;;17.28;57.97;98477.31;225505;1281;25407;-73
2023/05/14 17:25:32;;;;;;;3.80;3.00;;;;;;;17.13;58.62;98470.46;225397;1281;22593;-71
2023/05/14 17:30:34;;;;;;;4.20;2.60;;;;;;;17.01;58.56;98461.05;225534;1282;22541;-72
2023/05/14 17:35:36;;;;;;;4.50;2.80;;;;;;;16.87;58.88;98460.34;225581;1281;22680;-71
2023/05/14 17:40:39;;;;;;;5.70;2.50;;;;;;;16.74;59.16;98464.24;225545;1278;22629;-71
2023/05/14 17:45:42;;;;;;;4.00;2.80;;;;;;;16.65;59.45;98469.15;225537;1275;22543;-73
2023/05/14 17:50:58;;;;;;;9.80;6.80;;;;;;;16.55;61.28;98499.55;225519;1281;22542;-73
2023/05/14 17:56:01;;;;;;;8.60;5.70;;;;;;;16.37;62.68;98520.09;225407;1281;22603;-73
2023/05/14 18:01:04;;;;;;;4.80;4.30;;;;;;;16.10;63.39;98526.61;225385;1278;22568;-72
2023/05/14 18:06:07;;;;;;;6.60;4.20;;;;;;;15.79;64.02;98542.77;225492;1281;22552;-71
2023/05/14 18:11:09;;;;;;;5.00;4.60;;;;;;;15.54;64.76;98552.91;225476;1281;22566;-73
2023/05/14 18:16:12;;;;;;;5.50;4.10;;;;;;;15.36;65.66;98553.50;225460;1279;22539;-73
2023/05/14 18:21:14;;;;;;;4.40;3.60;;;;;;;15.22;66.13;98562.65;225514;1278;22528;-72
2023/05/14 18:26:20;;;;;;;5.00;4.60;;;;;;;15.10;66.70;98558.89;225463;1279;22552;-72
2023/05/14 18:31:26;;;;;;;7.50;5.30;;;;;;;14.96;67.28;98549.13;225469;1281;22601;-71
2023/05/14 18:36:29;;;;;;;5.00;4.20;;;;;;;14.82;67.92;98539.14;225501;1281;22557;-71
2023/05/14 18:41:31;;;;;;;5.80;4.50;;;;;;;14.64;68.66;98535.94;225376;1278;25282;-74
2023/05/14 18:46:33;;;;;;;5.00;4.50;;;;;;;14.52;68.86;98533.65;225372;1281;24247;-73
2023/05/14 18:51:35;;;;;;;4.80;4.30;;;;;;;14.45;69.42;98534.02;225394;1281;22550;-73
2023/05/14 18:56:40;;;;;;;6.30;5.30;;;;;;;14.41;69.87;98534.84;225498;1281;22553;-73
2023/05/14 19:01:42;;;;;;;5.90;5.10;;;;;;;14.38;70.43;98536.29;225485;1280;22564;-74
2023/05/14 19:06:45;;;;;;;7.20;5.20;;;;;;;14.32;70.70;98540.34;225425;1283;22547;-71
2023/05/14 19:11:47;;;;;;;6.10;5.50;;;;;;;14.23;71.11;98547.60;225517;1281;22556;-72
2023/05/14 19:17:01;;;;;;;7.60;5.70;;;;;;;14.18;71.38;98549.89;225492;1281;22562;-72
2023/05/14 19:22:04;;;;;;;6.60;5.80;;;;;;;14.14;71.88;98559.15;225432;1281;22587;-72
2023/05/14 19:27:11;;;;;;;7.20;6.10;;;;;;;14.10;72.42;98562.48;225384;1283;22535;-72
2023/05/14 19:32:16;;;;;;;6.60;5.40;;;;;;;14.06;72.44;98567.04;225478;1283;22559;-73
2023/05/14 19:37:19;;;;;;;6.70;5.70;;;;;;;14.00;72.77;98570.91;225481;1281;22558;-73
2023/05/14 19:42:23;;;;;;;10.60;9.40;;;;;;;13.96;73.09;98567.95;225476;1283;22546;-73
2023/05/14 19:47:32;;;;;;;9.40;7.40;;;;;;;13.92;73.48;98569.02;225485;1281;24253;-74
2023/05/14 19:52:41;;;;;;;9.50;7.30;;;;;;;13.88;73.86;98572.67;225466;1281;22554;-74
2023/05/14 19:57:49;;;;;;;8.30;7.50;;;;;;;13.82;74.53;98576.25;225473;1283;22524;-74
2023/05/14 20:02:58;;;;;;;15.00;10.30;;;;;;;13.76;74.85;98574.75;225512;1283;22560;-74
2023/05/14 20:08:05;;;;;;;14.60;10.40;;;;;;;13.68;75.19;98570.89;225495;1279;22656;-74
2023/05/14 20:13:07;;;;;;;18.30;15.80;;;;;;;13.60;75.36;98565.69;225500;1281;22546;-72
2023/05/14 20:18:10;;;;;;;17.30;14.00;;;;;;;13.52;75.70;98559.34;225375;1283;22562;-76
2023/05/14 20:23:11;;;;;;;13.80;10.80;;;;;;;13.44;76.03;98548.09;225493;1281;22859;-76
2023/05/14 20:28:14;;;;;;;11.20;9.90;;;;;;;13.34;76.35;98531.68;225398;1283;22551;-76
2023/05/14 20:33:17;;;;;;;11.80;8.70;;;;;;;13.23;76.46;98513.25;225382;1283;22526;-77
2023/05/14 20:38:20;;;;;;;10.20;9.20;;;;;;;13.11;76.92;98497.68;225384;1283;22614;-77
2023/05/14 20:43:22;;;;;;;10.40;8.40;;;;;;;12.96;77.16;98474.69;225470;1276;22591;-77
2023/05/14 20:48:25;;;;;;;10.10;8.80;;;;;;;12.81;77.63;98453.73;225374;1281;22546;-76
2023/05/14 20:53:27;;;;;;;12.40;10.20;;;;;;;12.68;78.06;98439.06;225443;1283;22601;-76
2023/05/14 20:58:29;;;;;;;11.70;10.50;;;;;;;12.59;78.82;98413.86;225471;1281;22563;-77
2023/05/14 21:03:33;;;;;;;9.80;8.80;;;;;;;12.52;79.20;98391.25;225473;1281;22937;-79
2023/05/14 21:09:02;;;;;;;12.00;10.70;;;;;;;12.46;79.54;98381.34;225501;1283;22483;-77
2023/05/14 21:14:15;;;;;;;12.30;11.10;;;;;;;12.43;79.86;98375.36;225476;1283;22564;-76
2023/05/14 21:19:18;;;;;;;13.50;11.50;;;;;;;12.43;80.46;98358.69;225481;1281;22540;-76
2023/05/14 21:24:22;;;;;;;13.00;11.20;;;;;;;12.42;80.73;98355.23;225475;1283;22552;-77
2023/05/14 21:29:25;;;;;;;11.90;10.60;;;;;;;12.39;80.82;98349.89;225350;1283;22693;-77
2023/05/14 21:34:30;;;;;;;13.40;11.90;;;;;;;12.35;81.06;98353.81;225438;1282;22540;-76
2023/05/14 21:39:38;;;;;;;14.10;12.50;;;;;;;12.30;81.10;98349.69;225346;1280;22561;-76
2023/05/14 21:44:41;;;;;;;17.50;13.30;;;;;;;12.27;81.14;98341.46;225482;1282;22695;-77
2023/05/14 21:49:52;;;;;;;18.60;14.80;;;;;;;12.25;81.20;98334.05;225460;1266;22667;-78
2023/05/14 21:54:55;;;;;;;17.60;15.60;;;;;;;12.22;81.63;98317.64;225455;1283;22609;-77
2023/05/14 22:00:00;;;;;;;20.40;16.60;;;;;;;12.19;81.52;98302.45;225462;1282;22560;-75
2023/05/14 22:05:08;;;;;;;17.70;15.80;;;;;;;12.15;81.97;98299.59;225552;1281;22543;-77
2023/05/14 22:10:12;;;;;;;17.40;15.60;;;;;;;12.14;82.09;98296.73;225389;1281;22543;-78
2023/05/14 22:15:14;;;;;;;19.80;17.50;;;;;;;12.12;82.26;98289.53;225361;1283;22571;-79
2023/05/14 22:20:24;;;;;;;20.90;17.50;;;;;;;12.11;82.53;98285.38;225482;1279;22538;-77
2023/05/14 22:25:30;;;;;;;18.70;16.80;;;;;;;12.09;82.63;98276.63;225407;1283;25976;-75
2023/05/14 22:30:32;;;;;;;18.00;16.10;;;;;;;12.08;82.83;98270.60;225383;1281;22652;-77
2023/05/14 22:35:46;;;;;;;18.60;16.70;;;;;;;12.07;82.76;98260.05;225480;1281;22550;-78
2023/05/14 22:41:02;;;;;;;19.60;17.60;;;;;;;12.09;82.89;98269.73;225137;1283;406593;-76
2023/05/14 22:46:04;;;;;;;20.80;17.30;;;;;;;12.11;83.07;98270.71;225470;1282;25403;-77
2023/05/14 22:51:16;;;;;;;17.50;15.50;;;;;;;12.13;83.04;98260.16;225354;1283;22540;-75
2023/05/14 22:56:37;;;;;;;17.00;15.00;;;;;;;12.16;83.09;98238.60;225450;1283;22544;-77
2023/05/14 23:01:46;;;;;;;18.40;16.30;;;;;;;12.17;83.18;98218.72;225371;1283;25742;-76
2023/05/14 23:06:49;;;;;;;18.20;15.60;;;;;;;12.18;83.15;98209.80;225458;1279;22540;-77
2023/05/14 23:11:55;;;;;;;16.20;14.50;;;;;;;12.21;83.08;98207.34;225472;1283;22691;-77
2023/05/14 23:17:07;;;;;;;15.60;13.70;;;;;;;12.22;83.14;98198.45;225345;1283;22551;-76
2023/05/14 23:22:13;;;;;;;17.00;15.20;;;;;;;12.26;83.29;98190.37;225484;1283;22539;-77
2023/05/14 23:27:35;;;;;;;20.10;16.50;;;;;;;12.28;83.27;98190.20;225425;1278;22693;-78
2023/05/14 23:32:38;;;;;;;18.80;16.80;;;;;;;12.31;83.13;98181.91;225434;1279;22546;-77
2023/05/14 23:37:45;;;;;;;19.20;17.20;;;;;;;12.33;83.17;98181.66;225450;1283;22551;-78
2023/05/14 23:42:55;;;;;;;19.90;17.50;;;;;;;12.36;83.09;98178.31;225508;1276;25281;-77
2023/05/14 23:48:22;;;;;;;21.70;18.60;;;;;;;12.39;82.95;98168.80;225384;1283;22535;-78
2023/05/14 23:53:25;;;;;;;19.10;16.90;;;;;;;12.40;82.95;98151.89;225442;1283;22574;-76
2023/05/14 23:58:30;;;;;;;22.10;17.70;;;;;;;12.40;82.90;98145.69;225326;1281;22555;-77
